sensor_id;sensor_type;location;lat;lon;timestamp;P1;durP1;ratioP1;P2;durP2;ratioP2
55537;SDS011;41383;51.418;7.286;2023-05-02T00:01:13;21.03;;;12.17;;
55537;SDS011;41383;51.418;7.286;2023-05-02T00:03:38;19.75;;;13.30;;
55537;SDS011;41383;51.418;7.286;2023-05-02T00:06:04;21.83;;;12.20;;
55537;SDS011;41383;51.418;7.286;2023-05-02T00:08:29;19.10;;;13.18;;
55537;SDS011;41383;51.418;7.286;2023-05-02T00:10:54;21.50;;;12.50;;
55537;SDS011;41383;51.418;7.286;2023-05-02T00:13:20;24.20;;;14.70;;
55537;SDS011;41383;51.418;7.286;2023-05-02T00:15:45;29.27;;;16.10;;
55537;SDS011;41383;51.418;7.286;2023-05-02T00:18:10;32.77;;;16.10;;
55537;SDS011;41383;51.418;7.286;2023-05-02T00:20:35;20.42;;;13.07;;
55537;SDS011;41383;51.418;7.286;2023-05-02T00:23:04;25.48;;;16.15;;
55537;SDS011;41383;51.418;7.286;2023-05-02T00:25:29;26.90;;;15.93;;
55537;SDS011;41383;51.418;7.286;2023-05-02T00:27:54;25.67;;;15.88;;
55537;SDS011;41383;51.418;7.286;2023-05-02T00:30:20;28.80;;;16.58;;
55537;SDS011;41383;51.418;7.286;2023-05-02T00:32:45;24.42;;;15.70;;
55537;SDS011;41383;51.418;7.286;2023-05-02T00:35:10;26.02;;;15.00;;
55537;SDS011;41383;51.418;7.286;2023-05-02T00:37:36;27.02;;;17.15;;
55537;SDS011;41383;51.418;7.286;2023-05-02T00:40:01;34.50;;;18.20;;
55537;SDS011;41383;51.418;7.286;2023-05-02T00:42:27;30.08;;;16.60;;
55537;SDS011;41383;51.418;7.286;2023-05-02T00:44:55;27.90;;;17.70;;
55537;SDS011;41383;51.418;7.286;2023-05-02T00:47:21;24.55;;;16.60;;
55537;SDS011;41383;51.418;7.286;2023-05-02T00:49:46;30.75;;;18.90;;
55537;SDS011;41383;51.418;7.286;2023-05-02T00:52:13;32.35;;;19.60;;
55537;SDS011;41383;51.418;7.286;2023-05-02T00:54:39;33.10;;;19.30;;
55537;SDS011;41383;51.418;7.286;2023-05-02T00:57:04;40.30;;;22.13;;
55537;SDS011;41383;51.418;7.286;2023-05-02T00:59:30;30.23;;;17.42;;
55537;SDS011;41383;51.418;7.286;2023-05-02T01:04:39;34.58;;;19.90;;
55537;SDS011;41383;51.418;7.286;2023-05-02T01:07:34;33.17;;;19.20;;
55537;SDS011;41383;51.418;7.286;2023-05-02T01:13:16;31.25;;;19.25;;
55537;SDS011;41383;51.418;7.286;2023-05-02T01:15:46;39.45;;;18.40;;
55537;SDS011;41383;51.418;7.286;2023-05-02T01:18:15;34.83;;;21.27;;
55537;SDS011;41383;51.418;7.286;2023-05-02T01:20:45;40.38;;;23.08;;
55537;SDS011;41383;51.418;7.286;2023-05-02T01:23:24;34.17;;;20.83;;
55537;SDS011;41383;51.418;7.286;2023-05-02T01:31:30;37.88;;;21.92;;
55537;SDS011;41383;51.418;7.286;2023-05-02T01:33:59;40.08;;;21.27;;
55537;SDS011;41383;51.418;7.286;2023-05-02T01:36:25;30.75;;;20.35;;
55537;SDS011;41383;51.418;7.286;2023-05-02T01:38:54;40.40;;;23.98;;
55537;SDS011;41383;51.418;7.286;2023-05-02T01:41:22;39.35;;;24.23;;
55537;SDS011;41383;51.418;7.286;2023-05-02T01:43:50;40.78;;;23.42;;
55537;SDS011;41383;51.418;7.286;2023-05-02T01:46:19;37.22;;;22.23;;
55537;SDS011;41383;51.418;7.286;2023-05-02T01:48:45;47.85;;;24.48;;
55537;SDS011;41383;51.418;7.286;2023-05-02T01:51:13;46.50;;;22.80;;
55537;SDS011;41383;51.418;7.286;2023-05-02T01:53:42;36.35;;;22.45;;
55537;SDS011;41383;51.418;7.286;2023-05-02T01:56:09;40.97;;;22.65;;
55537;SDS011;41383;51.418;7.286;2023-05-02T01:58:35;46.45;;;24.90;;
55537;SDS011;41383;51.418;7.286;2023-05-02T02:01:02;41.70;;;23.75;;
55537;SDS011;41383;51.418;7.286;2023-05-02T02:03:28;48.80;;;27.65;;
55537;SDS011;41383;51.418;7.286;2023-05-02T02:05:54;39.60;;;22.95;;
55537;SDS011;41383;51.418;7.286;2023-05-02T02:08:20;50.80;;;24.83;;
55537;SDS011;41383;51.418;7.286;2023-05-02T02:10:48;49.70;;;26.13;;
55537;SDS011;41383;51.418;7.286;2023-05-02T02:13:30;46.40;;;25.63;;
55537;SDS011;41383;51.418;7.286;2023-05-02T02:15:59;46.60;;;25.30;;
55537;SDS011;41383;51.418;7.286;2023-05-02T02:18:28;38.53;;;23.08;;
55537;SDS011;41383;51.418;7.286;2023-05-02T02:20:56;42.42;;;24.60;;
55537;SDS011;41383;51.418;7.286;2023-05-02T02:23:24;39.20;;;22.42;;
55537;SDS011;41383;51.418;7.286;2023-05-02T02:25:51;39.97;;;22.88;;
55537;SDS011;41383;51.418;7.286;2023-05-02T02:28:18;41.08;;;23.38;;
55537;SDS011;41383;51.418;7.286;2023-05-02T02:30:43;40.30;;;19.40;;
55537;SDS011;41383;51.418;7.286;2023-05-02T02:33:08;41.83;;;22.73;;
55537;SDS011;41383;51.418;7.286;2023-05-02T02:35:39;40.95;;;22.52;;
55537;SDS011;41383;51.418;7.286;2023-05-02T02:38:10;45.05;;;24.15;;
55537;SDS011;41383;51.418;7.286;2023-05-02T02:40:43;39.88;;;24.52;;
55537;SDS011;41383;51.418;7.286;2023-05-02T02:43:18;52.25;;;24.60;;
55537;SDS011;41383;51.418;7.286;2023-05-02T02:45:53;37.70;;;20.67;;
55537;SDS011;41383;51.418;7.286;2023-05-02T02:48:49;40.95;;;21.85;;
55537;SDS011;41383;51.418;7.286;2023-05-02T02:51:30;40.35;;;21.10;;
55537;SDS011;41383;51.418;7.286;2023-05-02T02:54:10;38.63;;;19.73;;
55537;SDS011;41383;51.418;7.286;2023-05-02T02:56:44;40.80;;;21.33;;
55537;SDS011;41383;51.418;7.286;2023-05-02T02:59:12;38.35;;;20.27;;
55537;SDS011;41383;51.418;7.286;2023-05-02T03:01:45;47.35;;;24.38;;
55537;SDS011;41383;51.418;7.286;2023-05-02T03:04:15;41.33;;;20.92;;
55537;SDS011;41383;51.418;7.286;2023-05-02T03:06:43;34.92;;;17.95;;
55537;SDS011;41383;51.418;7.286;2023-05-02T03:09:15;40.65;;;21.25;;
55537;SDS011;41383;51.418;7.286;2023-05-02T03:11:43;36.22;;;20.02;;
55537;SDS011;41383;51.418;7.286;2023-05-02T03:14:10;34.05;;;18.77;;
55537;SDS011;41383;51.418;7.286;2023-05-02T03:16:36;40.92;;;18.77;;
55537;SDS011;41383;51.418;7.286;2023-05-02T03:19:03;32.20;;;17.95;;
55537;SDS011;41383;51.418;7.286;2023-05-02T03:21:29;26.60;;;16.05;;
55537;SDS011;41383;51.418;7.286;2023-05-02T03:24:01;35.58;;;19.10;;
55537;SDS011;41383;51.418;7.286;2023-05-02T03:26:27;34.80;;;17.23;;
55537;SDS011;41383;51.418;7.286;2023-05-02T03:28:54;35.15;;;17.80;;
55537;SDS011;41383;51.418;7.286;2023-05-02T03:31:20;25.65;;;14.60;;
55537;SDS011;41383;51.418;7.286;2023-05-02T03:33:45;22.77;;;14.15;;
55537;SDS011;41383;51.418;7.286;2023-05-02T03:36:11;29.52;;;15.50;;
55537;SDS011;41383;51.418;7.286;2023-05-02T03:38:36;29.05;;;15.50;;
55537;SDS011;41383;51.418;7.286;2023-05-02T03:41:02;26.47;;;13.50;;
55537;SDS011;41383;51.418;7.286;2023-05-02T03:43:28;27.17;;;14.23;;
55537;SDS011;41383;51.418;7.286;2023-05-02T03:45:53;27.65;;;12.02;;
55537;SDS011;41383;51.418;7.286;2023-05-02T03:48:19;23.05;;;13.52;;
55537;SDS011;41383;51.418;7.286;2023-05-02T03:50:44;19.58;;;10.60;;
55537;SDS011;41383;51.418;7.286;2023-05-02T03:53:10;25.03;;;14.40;;
55537;SDS011;41383;51.418;7.286;2023-05-02T03:55:38;22.52;;;11.75;;
55537;SDS011;41383;51.418;7.286;2023-05-02T03:58:04;22.65;;;11.90;;
55537;SDS011;41383;51.418;7.286;2023-05-02T04:00:30;24.00;;;14.15;;
55537;SDS011;41383;51.418;7.286;2023-05-02T04:02:55;21.30;;;12.07;;
55537;SDS011;41383;51.418;7.286;2023-05-02T04:05:21;27.80;;;14.03;;
55537;SDS011;41383;51.418;7.286;2023-05-02T04:07:46;26.43;;;13.90;;
55537;SDS011;41383;51.418;7.286;2023-05-02T04:10:11;21.42;;;11.02;;
55537;SDS011;41383;51.418;7.286;2023-05-02T04:12:40;29.02;;;13.00;;
55537;SDS011;41383;51.418;7.286;2023-05-02T04:15:06;23.60;;;11.00;;
55537;SDS011;41383;51.418;7.286;2023-05-02T04:17:31;22.20;;;12.05;;
55537;SDS011;41383;51.418;7.286;2023-05-02T04:19:57;24.17;;;12.33;;
55537;SDS011;41383;51.418;7.286;2023-05-02T04:22:22;33.00;;;13.03;;
55537;SDS011;41383;51.418;7.286;2023-05-02T04:24:47;20.80;;;11.17;;
55537;SDS011;41383;51.418;7.286;2023-05-02T04:27:12;26.57;;;12.63;;
55537;SDS011;41383;51.418;7.286;2023-05-02T04:29:38;21.53;;;10.73;;
55537;SDS011;41383;51.418;7.286;2023-05-02T04:32:03;24.07;;;12.03;;
55537;SDS011;41383;51.418;7.286;2023-05-02T04:34:28;23.00;;;12.02;;
55537;SDS011;41383;51.418;7.286;2023-05-02T04:36:54;19.17;;;10.52;;
55537;SDS011;41383;51.418;7.286;2023-05-02T04:39:19;20.03;;;12.40;;
55537;SDS011;41383;51.418;7.286;2023-05-02T04:41:44;25.90;;;13.20;;
55537;SDS011;41383;51.418;7.286;2023-05-02T04:44:10;23.33;;;11.90;;
55537;SDS011;41383;51.418;7.286;2023-05-02T04:46:36;19.53;;;10.87;;
55537;SDS011;41383;51.418;7.286;2023-05-02T04:49:01;23.58;;;10.20;;
55537;SDS011;41383;51.418;7.286;2023-05-02T04:51:26;23.20;;;11.57;;
55537;SDS011;41383;51.418;7.286;2023-05-02T04:53:53;25.17;;;10.93;;
55537;SDS011;41383;51.418;7.286;2023-05-02T04:56:18;23.13;;;11.55;;
55537;SDS011;41383;51.418;7.286;2023-05-02T04:58:43;16.77;;;8.40;;
55537;SDS011;41383;51.418;7.286;2023-05-02T05:01:08;17.53;;;9.27;;
55537;SDS011;41383;51.418;7.286;2023-05-02T05:03:34;19.13;;;8.25;;
55537;SDS011;41383;51.418;7.286;2023-05-02T05:05:59;23.23;;;10.13;;
55537;SDS011;41383;51.418;7.286;2023-05-02T05:08:26;25.65;;;11.70;;
55537;SDS011;41383;51.418;7.286;2023-05-02T05:10:51;24.67;;;11.13;;
55537;SDS011;41383;51.418;7.286;2023-05-02T05:13:16;21.85;;;10.77;;
55537;SDS011;41383;51.418;7.286;2023-05-02T05:15:42;23.30;;;10.20;;
55537;SDS011;41383;51.418;7.286;2023-05-02T05:18:08;26.73;;;11.38;;
55537;SDS011;41383;51.418;7.286;2023-05-02T05:20:33;33.97;;;14.23;;
55537;SDS011;41383;51.418;7.286;2023-05-02T05:22:58;21.73;;;9.95;;
55537;SDS011;41383;51.418;7.286;2023-05-02T05:25:26;27.10;;;12.37;;
55537;SDS011;41383;51.418;7.286;2023-05-02T05:27:52;28.60;;;11.60;;
55537;SDS011;41383;51.418;7.286;2023-05-02T05:30:19;20.58;;;10.90;;
55537;SDS011;41383;51.418;7.286;2023-05-02T05:32:44;23.33;;;11.25;;
55537;SDS011;41383;51.418;7.286;2023-05-02T05:35:09;24.70;;;11.63;;
55537;SDS011;41383;51.418;7.286;2023-05-02T05:37:35;24.02;;;11.45;;
55537;SDS011;41383;51.418;7.286;2023-05-02T05:40:03;24.45;;;14.38;;
55537;SDS011;41383;51.418;7.286;2023-05-02T05:42:32;26.58;;;12.10;;
55537;SDS011;41383;51.418;7.286;2023-05-02T05:44:57;20.13;;;8.90;;
55537;SDS011;41383;51.418;7.286;2023-05-02T05:47:23;11.93;;;6.90;;
55537;SDS011;41383;51.418;7.286;2023-05-02T05:49:52;20.30;;;8.80;;
55537;SDS011;41383;51.418;7.286;2023-05-02T05:52:17;13.93;;;7.65;;
55537;SDS011;41383;51.418;7.286;2023-05-02T05:54:43;14.85;;;6.55;;
55537;SDS011;41383;51.418;7.286;2023-05-02T05:57:08;40.15;;;6.68;;
55537;SDS011;41383;51.418;7.286;2023-05-02T05:59:34;14.77;;;5.37;;
55537;SDS011;41383;51.418;7.286;2023-05-02T06:02:00;11.25;;;5.57;;
55537;SDS011;41383;51.418;7.286;2023-05-02T06:04:25;11.10;;;4.10;;
55537;SDS011;41383;51.418;7.286;2023-05-02T06:06:50;11.87;;;6.13;;
55537;SDS011;41383;51.418;7.286;2023-05-02T06:09:17;11.20;;;4.78;;
55537;SDS011;41383;51.418;7.286;2023-05-02T06:11:43;11.32;;;4.10;;
55537;SDS011;41383;51.418;7.286;2023-05-02T06:14:08;7.82;;;3.80;;
55537;SDS011;41383;51.418;7.286;2023-05-02T06:16:34;14.07;;;5.43;;
55537;SDS011;41383;51.418;7.286;2023-05-02T06:18:59;11.23;;;5.25;;
55537;SDS011;41383;51.418;7.286;2023-05-02T06:21:25;10.93;;;5.43;;
55537;SDS011;41383;51.418;7.286;2023-05-02T06:23:50;13.05;;;5.75;;
55537;SDS011;41383;51.418;7.286;2023-05-02T06:26:16;14.80;;;5.85;;
55537;SDS011;41383;51.418;7.286;2023-05-02T06:28:41;11.67;;;5.53;;
55537;SDS011;41383;51.418;7.286;2023-05-02T06:31:06;11.87;;;4.97;;
55537;SDS011;41383;51.418;7.286;2023-05-02T06:33:32;11.88;;;5.78;;
55537;SDS011;41383;51.418;7.286;2023-05-02T06:35:58;9.15;;;4.65;;
55537;SDS011;41383;51.418;7.286;2023-05-02T06:38:23;11.13;;;4.13;;
55537;SDS011;41383;51.418;7.286;2023-05-02T06:40:49;14.88;;;6.38;;
55537;SDS011;41383;51.418;7.286;2023-05-02T06:43:15;10.13;;;5.05;;
55537;SDS011;41383;51.418;7.286;2023-05-02T06:45:40;13.35;;;5.15;;
55537;SDS011;41383;51.418;7.286;2023-05-02T06:48:06;8.50;;;3.58;;
55537;SDS011;41383;51.418;7.286;2023-05-02T06:50:32;13.10;;;4.43;;
55537;SDS011;41383;51.418;7.286;2023-05-02T06:52:57;10.23;;;4.53;;
55537;SDS011;41383;51.418;7.286;2023-05-02T06:55:23;9.95;;;4.40;;
55537;SDS011;41383;51.418;7.286;2023-05-02T06:57:48;10.82;;;3.60;;
55537;SDS011;41383;51.418;7.286;2023-05-02T07:00:15;11.60;;;4.00;;
55537;SDS011;41383;51.418;7.286;2023-05-02T07:02:40;9.15;;;4.05;;
55537;SDS011;41383;51.418;7.286;2023-05-02T07:05:06;8.48;;;3.85;;
55537;SDS011;41383;51.418;7.286;2023-05-02T07:07:32;11.57;;;4.40;;
55537;SDS011;41383;51.418;7.286;2023-05-02T07:09:57;14.53;;;4.43;;
55537;SDS011;41383;51.418;7.286;2023-05-02T07:12:22;10.53;;;3.47;;
55537;SDS011;41383;51.418;7.286;2023-05-02T07:14:47;10.07;;;4.65;;
55537;SDS011;41383;51.418;7.286;2023-05-02T07:17:13;7.63;;;3.70;;
55537;SDS011;41383;51.418;7.286;2023-05-02T07:19:39;9.15;;;4.07;;
55537;SDS011;41383;51.418;7.286;2023-05-02T07:22:04;14.43;;;4.65;;
55537;SDS011;41383;51.418;7.286;2023-05-02T07:24:30;8.20;;;3.17;;
55537;SDS011;41383;51.418;7.286;2023-05-02T07:26:56;12.67;;;3.07;;
55537;SDS011;41383;51.418;7.286;2023-05-02T07:29:21;11.23;;;4.40;;
55537;SDS011;41383;51.418;7.286;2023-05-02T07:31:46;10.17;;;4.97;;
55537;SDS011;41383;51.418;7.286;2023-05-02T07:34:11;6.07;;;3.27;;
55537;SDS011;41383;51.418;7.286;2023-05-02T07:36:37;11.80;;;3.70;;
55537;SDS011;41383;51.418;7.286;2023-05-02T07:39:03;10.43;;;4.15;;
55537;SDS011;41383;51.418;7.286;2023-05-02T07:41:28;18.05;;;4.88;;
55537;SDS011;41383;51.418;7.286;2023-05-02T07:43:53;7.57;;;3.72;;
55537;SDS011;41383;51.418;7.286;2023-05-02T07:46:19;6.50;;;2.65;;
55537;SDS011;41383;51.418;7.286;2023-05-02T07:48:45;7.85;;;3.50;;
55537;SDS011;41383;51.418;7.286;2023-05-02T07:51:10;8.63;;;3.93;;
55537;SDS011;41383;51.418;7.286;2023-05-02T07:53:36;5.35;;;2.53;;
55537;SDS011;41383;51.418;7.286;2023-05-02T07:56:04;13.03;;;3.47;;
55537;SDS011;41383;51.418;7.286;2023-05-02T07:58:31;9.30;;;3.58;;
55537;SDS011;41383;51.418;7.286;2023-05-02T08:00:56;8.13;;;2.78;;
55537;SDS011;41383;51.418;7.286;2023-05-02T08:03:21;6.53;;;2.97;;
55537;SDS011;41383;51.418;7.286;2023-05-02T08:05:47;9.98;;;3.53;;
55537;SDS011;41383;51.418;7.286;2023-05-02T08:08:12;14.50;;;4.38;;
55537;SDS011;41383;51.418;7.286;2023-05-02T08:10:37;7.13;;;2.80;;
55537;SDS011;41383;51.418;7.286;2023-05-02T08:13:03;8.47;;;3.40;;
55537;SDS011;41383;51.418;7.286;2023-05-02T08:15:28;7.50;;;2.72;;
55537;SDS011;41383;51.418;7.286;2023-05-02T08:17:54;60.78;;;7.63;;
55537;SDS011;41383;51.418;7.286;2023-05-02T08:20:19;6.28;;;2.33;;
55537;SDS011;41383;51.418;7.286;2023-05-02T08:22:46;4.47;;;1.40;;
55537;SDS011;41383;51.418;7.286;2023-05-02T08:25:11;7.07;;;2.22;;
55537;SDS011;41383;51.418;7.286;2023-05-02T08:27:36;5.32;;;1.80;;
55537;SDS011;41383;51.418;7.286;2023-05-02T08:30:01;6.30;;;1.10;;
55537;SDS011;41383;51.418;7.286;2023-05-02T08:32:27;3.53;;;1.48;;
55537;SDS011;41383;51.418;7.286;2023-05-02T08:34:54;4.40;;;1.80;;
55537;SDS011;41383;51.418;7.286;2023-05-02T08:37:20;7.70;;;2.20;;
55537;SDS011;41383;51.418;7.286;2023-05-02T08:39:46;6.70;;;2.22;;
55537;SDS011;41383;51.418;7.286;2023-05-02T08:42:11;8.18;;;2.85;;
55537;SDS011;41383;51.418;7.286;2023-05-02T08:44:36;6.60;;;2.15;;
55537;SDS011;41383;51.418;7.286;2023-05-02T08:47:02;5.40;;;2.45;;
55537;SDS011;41383;51.418;7.286;2023-05-02T08:49:29;4.78;;;2.25;;
55537;SDS011;41383;51.418;7.286;2023-05-02T08:51:55;38.72;;;23.98;;
55537;SDS011;41383;51.418;7.286;2023-05-02T08:54:23;18.75;;;9.07;;
55537;SDS011;41383;51.418;7.286;2023-05-02T08:56:50;13.23;;;6.40;;
55537;SDS011;41383;51.418;7.286;2023-05-02T08:59:17;7.40;;;2.25;;
55537;SDS011;41383;51.418;7.286;2023-05-02T09:01:43;6.15;;;2.40;;
55537;SDS011;41383;51.418;7.286;2023-05-02T09:04:10;7.00;;;1.95;;
55537;SDS011;41383;51.418;7.286;2023-05-02T09:06:36;10.32;;;3.92;;
55537;SDS011;41383;51.418;7.286;2023-05-02T09:09:01;5.75;;;2.55;;
55537;SDS011;41383;51.418;7.286;2023-05-02T09:11:27;6.55;;;2.67;;
55537;SDS011;41383;51.418;7.286;2023-05-02T09:13:53;6.80;;;3.40;;
55537;SDS011;41383;51.418;7.286;2023-05-02T09:16:19;10.50;;;2.80;;
55537;SDS011;41383;51.418;7.286;2023-05-02T09:23:51;11.00;;;3.33;;
55537;SDS011;41383;51.418;7.286;2023-05-02T09:26:19;6.80;;;2.63;;
55537;SDS011;41383;51.418;7.286;2023-05-02T09:28:52;9.02;;;2.80;;
55537;SDS011;41383;51.418;7.286;2023-05-02T09:31:19;9.07;;;3.40;;
55537;SDS011;41383;51.418;7.286;2023-05-02T09:33:47;87.20;;;49.22;;
55537;SDS011;41383;51.418;7.286;2023-05-02T09:36:14;19.67;;;10.27;;
55537;SDS011;41383;51.418;7.286;2023-05-02T09:38:44;8.18;;;2.88;;
55537;SDS011;41383;51.418;7.286;2023-05-02T09:41:11;9.32;;;3.47;;
55537;SDS011;41383;51.418;7.286;2023-05-02T09:43:37;7.57;;;2.83;;
55537;SDS011;41383;51.418;7.286;2023-05-02T09:46:04;7.47;;;3.88;;
55537;SDS011;41383;51.418;7.286;2023-05-02T09:51:20;8.93;;;2.40;;
55537;SDS011;41383;51.418;7.286;2023-05-02T09:53:46;8.27;;;2.33;;
55537;SDS011;41383;51.418;7.286;2023-05-02T09:56:12;6.85;;;3.05;;
55537;SDS011;41383;51.418;7.286;2023-05-02T09:58:37;11.07;;;3.95;;
55537;SDS011;41383;51.418;7.286;2023-05-02T10:01:03;7.13;;;2.97;;
55537;SDS011;41383;51.418;7.286;2023-05-02T10:03:29;7.30;;;2.70;;
55537;SDS011;41383;51.418;7.286;2023-05-02T10:05:56;8.43;;;2.05;;
55537;SDS011;41383;51.418;7.286;2023-05-02T10:08:24;5.40;;;1.80;;
55537;SDS011;41383;51.418;7.286;2023-05-02T10:10:52;5.28;;;1.45;;
55537;SDS011;41383;51.418;7.286;2023-05-02T10:13:19;10.35;;;3.33;;
55537;SDS011;41383;51.418;7.286;2023-05-02T10:15:48;10.07;;;2.58;;
55537;SDS011;41383;51.418;7.286;2023-05-02T10:18:39;5.90;;;2.58;;
55537;SDS011;41383;51.418;7.286;2023-05-02T10:21:10;5.00;;;2.25;;
55537;SDS011;41383;51.418;7.286;2023-05-02T10:23:37;6.45;;;2.60;;
55537;SDS011;41383;51.418;7.286;2023-05-02T10:26:06;5.95;;;2.60;;
55537;SDS011;41383;51.418;7.286;2023-05-02T10:28:32;9.15;;;3.17;;
55537;SDS011;41383;51.418;7.286;2023-05-02T10:30:59;8.25;;;3.13;;
55537;SDS011;41383;51.418;7.286;2023-05-02T10:33:26;5.15;;;2.42;;
55537;SDS011;41383;51.418;7.286;2023-05-02T10:35:52;6.60;;;2.95;;
55537;SDS011;41383;51.418;7.286;2023-05-02T10:38:18;13.60;;;2.92;;
55537;SDS011;41383;51.418;7.286;2023-05-02T10:40:53;8.13;;;3.63;;
55537;SDS011;41383;51.418;7.286;2023-05-02T10:43:26;8.13;;;4.15;;
55537;SDS011;41383;51.418;7.286;2023-05-02T10:45:54;7.85;;;3.42;;
55537;SDS011;41383;51.418;7.286;2023-05-02T10:48:21;10.40;;;3.95;;
55537;SDS011;41383;51.418;7.286;2023-05-02T10:50:49;6.70;;;3.40;;
55537;SDS011;41383;51.418;7.286;2023-05-02T10:58:45;13.95;;;4.70;;
55537;SDS011;41383;51.418;7.286;2023-05-02T11:06:29;14.68;;;4.95;;
55537;SDS011;41383;51.418;7.286;2023-05-02T11:09:29;11.77;;;4.22;;
55537;SDS011;41383;51.418;7.286;2023-05-02T11:11:47;10.82;;;5.25;;
55537;SDS011;41383;51.418;7.286;2023-05-02T11:19:23;12.38;;;5.40;;
55537;SDS011;41383;51.418;7.286;2023-05-02T11:21:49;13.93;;;6.35;;
55537;SDS011;41383;51.418;7.286;2023-05-02T11:30:06;11.65;;;5.50;;
55537;SDS011;41383;51.418;7.286;2023-05-02T11:33:18;23.15;;;5.05;;
55537;SDS011;41383;51.418;7.286;2023-05-02T11:35:20;14.10;;;6.07;;
55537;SDS011;41383;51.418;7.286;2023-05-02T11:37:53;11.23;;;5.82;;
55537;SDS011;41383;51.418;7.286;2023-05-02T11:40:19;13.40;;;6.30;;
55537;SDS011;41383;51.418;7.286;2023-05-02T11:42:44;17.83;;;5.93;;
55537;SDS011;41383;51.418;7.286;2023-05-02T11:45:09;11.98;;;5.60;;
55537;SDS011;41383;51.418;7.286;2023-05-02T11:47:35;10.90;;;4.60;;
55537;SDS011;41383;51.418;7.286;2023-05-02T11:50:03;12.32;;;4.05;;
55537;SDS011;41383;51.418;7.286;2023-05-02T11:52:29;12.55;;;5.88;;
55537;SDS011;41383;51.418;7.286;2023-05-02T11:54:54;12.35;;;5.05;;
55537;SDS011;41383;51.418;7.286;2023-05-02T11:57:21;11.90;;;4.30;;
55537;SDS011;41383;51.418;7.286;2023-05-02T11:59:50;9.90;;;4.25;;
55537;SDS011;41383;51.418;7.286;2023-05-02T12:02:17;8.60;;;3.67;;
55537;SDS011;41383;51.418;7.286;2023-05-02T12:04:42;15.45;;;4.55;;
55537;SDS011;41383;51.418;7.286;2023-05-02T12:07:11;14.98;;;3.88;;
55537;SDS011;41383;51.418;7.286;2023-05-02T12:09:49;15.20;;;4.53;;
55537;SDS011;41383;51.418;7.286;2023-05-02T12:12:21;7.43;;;4.13;;
55537;SDS011;41383;51.418;7.286;2023-05-02T12:14:46;9.48;;;4.15;;
55537;SDS011;41383;51.418;7.286;2023-05-02T12:17:12;6.68;;;4.18;;
55537;SDS011;41383;51.418;7.286;2023-05-02T12:19:37;12.38;;;3.40;;
55537;SDS011;41383;51.418;7.286;2023-05-02T12:22:03;6.35;;;3.22;;
55537;SDS011;41383;51.418;7.286;2023-05-02T12:24:29;7.43;;;3.03;;
55537;SDS011;41383;51.418;7.286;2023-05-02T12:27:13;7.60;;;3.10;;
55537;SDS011;41383;51.418;7.286;2023-05-02T12:29:40;8.73;;;3.58;;
55537;SDS011;41383;51.418;7.286;2023-05-02T12:32:06;12.15;;;3.90;;
55537;SDS011;41383;51.418;7.286;2023-05-02T12:34:32;10.23;;;3.25;;
55537;SDS011;41383;51.418;7.286;2023-05-02T12:36:58;7.38;;;3.50;;
55537;SDS011;41383;51.418;7.286;2023-05-02T12:39:39;11.07;;;4.07;;
55537;SDS011;41383;51.418;7.286;2023-05-02T12:42:10;6.35;;;2.97;;
55537;SDS011;41383;51.418;7.286;2023-05-02T12:44:36;12.85;;;3.38;;
55537;SDS011;41383;51.418;7.286;2023-05-02T12:47:03;9.27;;;2.88;;
55537;SDS011;41383;51.418;7.286;2023-05-02T12:49:28;8.18;;;4.00;;
55537;SDS011;41383;51.418;7.286;2023-05-02T12:51:54;7.30;;;3.55;;
55537;SDS011;41383;51.418;7.286;2023-05-02T12:54:22;11.10;;;4.10;;
55537;SDS011;41383;51.418;7.286;2023-05-02T12:56:48;6.32;;;3.60;;
55537;SDS011;41383;51.418;7.286;2023-05-02T12:59:28;6.47;;;3.55;;
55537;SDS011;41383;51.418;7.286;2023-05-02T13:01:54;9.68;;;5.13;;
55537;SDS011;41383;51.418;7.286;2023-05-02T13:04:20;7.75;;;4.53;;
55537;SDS011;41383;51.418;7.286;2023-05-02T13:06:45;7.07;;;3.97;;
55537;SDS011;41383;51.418;7.286;2023-05-02T13:09:10;8.23;;;3.60;;
55537;SDS011;41383;51.418;7.286;2023-05-02T13:11:35;5.83;;;3.90;;
55537;SDS011;41383;51.418;7.286;2023-05-02T13:14:03;12.02;;;3.63;;
55537;SDS011;41383;51.418;7.286;2023-05-02T13:16:29;7.93;;;3.10;;
55537;SDS011;41383;51.418;7.286;2023-05-02T13:18:55;5.85;;;3.35;;
55537;SDS011;41383;51.418;7.286;2023-05-02T13:21:20;6.78;;;3.53;;
55537;SDS011;41383;51.418;7.286;2023-05-02T13:23:46;7.65;;;3.08;;
55537;SDS011;41383;51.418;7.286;2023-05-02T13:26:14;22.00;;;3.15;;
55537;SDS011;41383;51.418;7.286;2023-05-02T13:28:40;7.30;;;3.55;;
55537;SDS011;41383;51.418;7.286;2023-05-02T13:31:05;10.70;;;4.63;;
55537;SDS011;41383;51.418;7.286;2023-05-02T13:33:30;7.47;;;3.25;;
55537;SDS011;41383;51.418;7.286;2023-05-02T13:35:56;6.30;;;3.15;;
55537;SDS011;41383;51.418;7.286;2023-05-02T13:38:21;7.07;;;4.37;;
55537;SDS011;41383;51.418;7.286;2023-05-02T13:40:46;8.37;;;3.30;;
55537;SDS011;41383;51.418;7.286;2023-05-02T13:43:12;8.75;;;3.25;;
55537;SDS011;41383;51.418;7.286;2023-05-02T13:45:38;6.10;;;3.65;;
55537;SDS011;41383;51.418;7.286;2023-05-02T13:48:03;6.87;;;3.97;;
55537;SDS011;41383;51.418;7.286;2023-05-02T13:50:29;25.55;;;5.22;;
55537;SDS011;41383;51.418;7.286;2023-05-02T13:52:54;6.50;;;3.45;;
55537;SDS011;41383;51.418;7.286;2023-05-02T13:55:20;8.27;;;3.45;;
55537;SDS011;41383;51.418;7.286;2023-05-02T13:57:45;8.80;;;5.10;;
55537;SDS011;41383;51.418;7.286;2023-05-02T14:00:11;10.43;;;3.90;;
55537;SDS011;41383;51.418;7.286;2023-05-02T14:02:37;9.68;;;3.78;;
55537;SDS011;41383;51.418;7.286;2023-05-02T14:05:02;11.07;;;4.38;;
55537;SDS011;41383;51.418;7.286;2023-05-02T14:07:28;17.02;;;6.28;;
55537;SDS011;41383;51.418;7.286;2023-05-02T14:09:53;9.20;;;3.92;;
55537;SDS011;41383;51.418;7.286;2023-05-02T14:12:18;13.10;;;4.33;;
55537;SDS011;41383;51.418;7.286;2023-05-02T14:14:44;8.77;;;3.58;;
55537;SDS011;41383;51.418;7.286;2023-05-02T14:17:09;9.80;;;3.85;;
55537;SDS011;41383;51.418;7.286;2023-05-02T14:19:35;10.47;;;4.20;;
55537;SDS011;41383;51.418;7.286;2023-05-02T14:22:00;8.40;;;3.85;;
55537;SDS011;41383;51.418;7.286;2023-05-02T14:24:25;10.23;;;3.90;;
55537;SDS011;41383;51.418;7.286;2023-05-02T14:26:51;9.03;;;3.50;;
55537;SDS011;41383;51.418;7.286;2023-05-02T14:29:16;8.93;;;3.43;;
55537;SDS011;41383;51.418;7.286;2023-05-02T14:31:42;12.50;;;4.30;;
55537;SDS011;41383;51.418;7.286;2023-05-02T14:34:07;8.63;;;3.57;;
55537;SDS011;41383;51.418;7.286;2023-05-02T14:36:33;6.82;;;3.42;;
55537;SDS011;41383;51.418;7.286;2023-05-02T14:38:58;10.37;;;4.80;;
55537;SDS011;41383;51.418;7.286;2023-05-02T14:41:23;8.32;;;4.38;;
55537;SDS011;41383;51.418;7.286;2023-05-02T14:43:50;9.30;;;4.30;;
55537;SDS011;41383;51.418;7.286;2023-05-02T14:46:16;8.48;;;3.80;;
55537;SDS011;41383;51.418;7.286;2023-05-02T14:48:41;12.33;;;4.60;;
55537;SDS011;41383;51.418;7.286;2023-05-02T14:51:06;11.23;;;3.03;;
55537;SDS011;41383;51.418;7.286;2023-05-02T14:53:32;9.43;;;4.07;;
55537;SDS011;41383;51.418;7.286;2023-05-02T14:55:57;21.65;;;6.28;;
55537;SDS011;41383;51.418;7.286;2023-05-02T14:58:22;7.85;;;3.88;;
55537;SDS011;41383;51.418;7.286;2023-05-02T15:00:47;14.38;;;4.68;;
55537;SDS011;41383;51.418;7.286;2023-05-02T15:03:13;10.40;;;3.90;;
55537;SDS011;41383;51.418;7.286;2023-05-02T15:05:38;9.13;;;3.57;;
55537;SDS011;41383;51.418;7.286;2023-05-02T15:08:04;11.23;;;4.18;;
55537;SDS011;41383;51.418;7.286;2023-05-02T15:10:29;9.40;;;4.35;;
55537;SDS011;41383;51.418;7.286;2023-05-02T15:12:55;14.70;;;4.45;;